sensor_id;sensor_type;location;lat;lon;timestamp;P1;durP1;ratioP1;P2;durP2;ratioP2
31126;SDS011;17775;57.948;12.514;2023-03-09T00:01:24;1.15;;;0.77;;
31126;SDS011;17775;57.948;12.514;2023-03-09T00:03:50;2.10;;;1.50;;
31126;SDS011;17775;57.948;12.514;2023-03-09T00:06:17;2.22;;;1.00;;
31126;SDS011;17775;57.948;12.514;2023-03-09T00:08:44;2.97;;;0.82;;
31126;SDS011;17775;57.948;12.514;2023-03-09T00:11:11;4.10;;;0.70;;
31126;SDS011;17775;57.948;12.514;2023-03-09T00:13:40;2.70;;;0.98;;
31126;SDS011;17775;57.948;12.514;2023-03-09T00:16:17;2.50;;;1.23;;
31126;SDS011;17775;57.948;12.514;2023-03-09T00:18:44;5.55;;;1.05;;
31126;SDS011;17775;57.948;12.514;2023-03-09T00:21:10;0.82;;;0.55;;
31126;SDS011;17775;57.948;12.514;2023-03-09T00:24:23;4.80;;;0.85;;
31126;SDS011;17775;57.948;12.514;2023-03-09T00:26:51;2.65;;;1.25;;
31126;SDS011;17775;57.948;12.514;2023-03-09T00:29:18;1.48;;;0.70;;
31126;SDS011;17775;57.948;12.514;2023-03-09T00:31:45;2.65;;;0.90;;
31126;SDS011;17775;57.948;12.514;2023-03-09T00:34:11;2.30;;;0.95;;
31126;SDS011;17775;57.948;12.514;2023-03-09T00:36:38;1.85;;;0.70;;
31126;SDS011;17775;57.948;12.514;2023-03-09T00:39:05;5.88;;;1.42;;
31126;SDS011;17775;57.948;12.514;2023-03-09T00:41:32;1.73;;;0.63;;
31126;SDS011;17775;57.948;12.514;2023-03-09T00:43:59;1.52;;;0.90;;
31126;SDS011;17775;57.948;12.514;2023-03-09T00:46:26;3.45;;;0.88;;
31126;SDS011;17775;57.948;12.514;2023-03-09T00:48:53;2.45;;;0.90;;
31126;SDS011;17775;57.948;12.514;2023-03-09T00:51:19;1.52;;;0.77;;
31126;SDS011;17775;57.948;12.514;2023-03-09T00:53:46;3.92;;;0.77;;
31126;SDS011;17775;57.948;12.514;2023-03-09T00:56:14;2.72;;;0.85;;
31126;SDS011;17775;57.948;12.514;2023-03-09T00:58:41;1.20;;;0.77;;
31126;SDS011;17775;57.948;12.514;2023-03-09T01:01:08;3.45;;;1.10;;
31126;SDS011;17775;57.948;12.514;2023-03-09T01:03:35;4.53;;;0.93;;
31126;SDS011;17775;57.948;12.514;2023-03-09T01:06:02;1.20;;;0.70;;
31126;SDS011;17775;57.948;12.514;2023-03-09T01:08:29;4.50;;;0.73;;
31126;SDS011;17775;57.948;12.514;2023-03-09T01:10:55;0.60;;;0.52;;
31126;SDS011;17775;57.948;12.514;2023-03-09T01:13:24;1.08;;;0.60;;
31126;SDS011;17775;57.948;12.514;2023-03-09T01:15:50;2.42;;;0.80;;
31126;SDS011;17775;57.948;12.514;2023-03-09T01:18:17;2.22;;;0.88;;
31126;SDS011;17775;57.948;12.514;2023-03-09T01:20:43;2.53;;;0.90;;
31126;SDS011;17775;57.948;12.514;2023-03-09T01:23:10;1.98;;;0.80;;
31126;SDS011;17775;57.948;12.514;2023-03-09T01:25:36;1.95;;;0.88;;
31126;SDS011;17775;57.948;12.514;2023-03-09T01:28:03;0.98;;;0.60;;
31126;SDS011;17775;57.948;12.514;2023-03-09T01:30:29;2.03;;;0.90;;
31126;SDS011;17775;57.948;12.514;2023-03-09T01:32:56;1.75;;;0.60;;
31126;SDS011;17775;57.948;12.514;2023-03-09T01:35:22;2.05;;;1.02;;
31126;SDS011;17775;57.948;12.514;2023-03-09T01:37:49;1.80;;;1.00;;
31126;SDS011;17775;57.948;12.514;2023-03-09T01:40:16;1.40;;;0.73;;
31126;SDS011;17775;57.948;12.514;2023-03-09T01:42:43;1.33;;;0.80;;
31126;SDS011;17775;57.948;12.514;2023-03-09T01:48:02;1.90;;;0.80;;
31126;SDS011;17775;57.948;12.514;2023-03-09T01:50:33;6.78;;;1.27;;
31126;SDS011;17775;57.948;12.514;2023-03-09T01:53:02;1.42;;;0.73;;
31126;SDS011;17775;57.948;12.514;2023-03-09T01:55:37;1.33;;;0.93;;
31126;SDS011;17775;57.948;12.514;2023-03-09T01:58:08;1.40;;;0.63;;
31126;SDS011;17775;57.948;12.514;2023-03-09T02:00:35;1.48;;;0.80;;
31126;SDS011;17775;57.948;12.514;2023-03-09T02:06:05;3.08;;;0.80;;
31126;SDS011;17775;57.948;12.514;2023-03-09T02:08:25;1.33;;;0.63;;
31126;SDS011;17775;57.948;12.514;2023-03-09T02:10:56;1.15;;;0.73;;
31126;SDS011;17775;57.948;12.514;2023-03-09T02:13:28;2.15;;;0.90;;
31126;SDS011;17775;57.948;12.514;2023-03-09T02:15:55;2.10;;;0.85;;
31126;SDS011;17775;57.948;12.514;2023-03-09T02:18:22;1.42;;;0.47;;
31126;SDS011;17775;57.948;12.514;2023-03-09T02:26:30;2.38;;;0.70;;
31126;SDS011;17775;57.948;12.514;2023-03-09T02:28:58;3.75;;;1.00;;
31126;SDS011;17775;57.948;12.514;2023-03-09T02:31:24;2.40;;;0.70;;
31126;SDS011;17775;57.948;12.514;2023-03-09T02:33:51;2.65;;;0.70;;
31126;SDS011;17775;57.948;12.514;2023-03-09T02:36:17;1.48;;;0.80;;
31126;SDS011;17775;57.948;12.514;2023-03-09T02:38:44;3.10;;;1.10;;
31126;SDS011;17775;57.948;12.514;2023-03-09T02:41:10;3.92;;;1.10;;
31126;SDS011;17775;57.948;12.514;2023-03-09T02:43:43;1.50;;;0.60;;
31126;SDS011;17775;57.948;12.514;2023-03-09T02:46:10;1.38;;;0.75;;
31126;SDS011;17775;57.948;12.514;2023-03-09T02:48:37;1.55;;;0.80;;
31126;SDS011;17775;57.948;12.514;2023-03-09T02:51:03;1.95;;;0.70;;
31126;SDS011;17775;57.948;12.514;2023-03-09T02:53:32;1.70;;;0.80;;
31126;SDS011;17775;57.948;12.514;2023-03-09T02:55:58;2.75;;;0.75;;
31126;SDS011;17775;57.948;12.514;2023-03-09T02:58:28;1.65;;;1.05;;
31126;SDS011;17775;57.948;12.514;2023-03-09T03:00:54;1.88;;;0.88;;
31126;SDS011;17775;57.948;12.514;2023-03-09T03:03:21;1.88;;;1.10;;
31126;SDS011;17775;57.948;12.514;2023-03-09T03:05:47;2.28;;;1.08;;
31126;SDS011;17775;57.948;12.514;2023-03-09T03:08:14;2.55;;;0.82;;
31126;SDS011;17775;57.948;12.514;2023-03-09T03:10:55;4.50;;;1.13;;
31126;SDS011;17775;57.948;12.514;2023-03-09T03:13:21;3.70;;;0.85;;
31126;SDS011;17775;57.948;12.514;2023-03-09T03:15:48;4.10;;;1.20;;
31126;SDS011;17775;57.948;12.514;2023-03-09T03:18:14;1.42;;;0.82;;
31126;SDS011;17775;57.948;12.514;2023-03-09T03:20:41;1.90;;;1.10;;
31126;SDS011;17775;57.948;12.514;2023-03-09T03:23:07;2.97;;;0.98;;
31126;SDS011;17775;57.948;12.514;2023-03-09T03:25:34;1.98;;;0.90;;
31126;SDS011;17775;57.948;12.514;2023-03-09T03:28:01;3.00;;;1.00;;
31126;SDS011;17775;57.948;12.514;2023-03-09T03:30:28;2.67;;;1.00;;
31126;SDS011;17775;57.948;12.514;2023-03-09T03:32:54;1.27;;;0.93;;
31126;SDS011;17775;57.948;12.514;2023-03-09T03:35:21;2.88;;;0.85;;
31126;SDS011;17775;57.948;12.514;2023-03-09T03:37:47;4.90;;;0.90;;
31126;SDS011;17775;57.948;12.514;2023-03-09T03:40:14;1.77;;;0.75;;
31126;SDS011;17775;57.948;12.514;2023-03-09T03:42:41;1.08;;;0.70;;
31126;SDS011;17775;57.948;12.514;2023-03-09T03:45:07;0.63;;;0.60;;
31126;SDS011;17775;57.948;12.514;2023-03-09T03:47:34;2.28;;;1.33;;
31126;SDS011;17775;57.948;12.514;2023-03-09T03:50:04;2.13;;;0.90;;
31126;SDS011;17775;57.948;12.514;2023-03-09T03:52:31;3.20;;;0.80;;
31126;SDS011;17775;57.948;12.514;2023-03-09T03:54:57;4.07;;;1.13;;
31126;SDS011;17775;57.948;12.514;2023-03-09T03:57:24;2.40;;;0.82;;
31126;SDS011;17775;57.948;12.514;2023-03-09T03:59:50;1.80;;;0.80;;
31126;SDS011;17775;57.948;12.514;2023-03-09T04:02:16;3.67;;;0.82;;
31126;SDS011;17775;57.948;12.514;2023-03-09T04:04:43;1.98;;;0.90;;
31126;SDS011;17775;57.948;12.514;2023-03-09T04:07:09;1.77;;;0.70;;
31126;SDS011;17775;57.948;12.514;2023-03-09T04:09:38;2.75;;;1.35;;
31126;SDS011;17775;57.948;12.514;2023-03-09T04:12:04;3.33;;;1.00;;
31126;SDS011;17775;57.948;12.514;2023-03-09T04:14:31;6.35;;;1.38;;
31126;SDS011;17775;57.948;12.514;2023-03-09T04:17:00;1.85;;;0.93;;
31126;SDS011;17775;57.948;12.514;2023-03-09T04:19:26;0.85;;;0.68;;
31126;SDS011;17775;57.948;12.514;2023-03-09T04:21:53;4.88;;;1.02;;
31126;SDS011;17775;57.948;12.514;2023-03-09T04:24:19;1.48;;;0.93;;
31126;SDS011;17775;57.948;12.514;2023-03-09T04:26:46;2.03;;;0.98;;
31126;SDS011;17775;57.948;12.514;2023-03-09T04:29:12;1.25;;;0.80;;
31126;SDS011;17775;57.948;12.514;2023-03-09T04:31:39;0.85;;;0.60;;
31126;SDS011;17775;57.948;12.514;2023-03-09T04:34:05;4.55;;;1.58;;
31126;SDS011;17775;57.948;12.514;2023-03-09T04:36:32;3.33;;;0.75;;
31126;SDS011;17775;57.948;12.514;2023-03-09T04:38:59;1.95;;;0.80;;
31126;SDS011;17775;57.948;12.514;2023-03-09T04:41:25;2.00;;;0.90;;
31126;SDS011;17775;57.948;12.514;2023-03-09T04:43:52;6.50;;;1.42;;
31126;SDS011;17775;57.948;12.514;2023-03-09T04:46:18;3.05;;;1.05;;
31126;SDS011;17775;57.948;12.514;2023-03-09T04:48:47;5.30;;;1.10;;
31126;SDS011;17775;57.948;12.514;2023-03-09T04:51:13;2.72;;;0.90;;
31126;SDS011;17775;57.948;12.514;2023-03-09T04:53:40;1.15;;;0.73;;
31126;SDS011;17775;57.948;12.514;2023-03-09T04:56:06;1.50;;;0.75;;
31126;SDS011;17775;57.948;12.514;2023-03-09T04:58:33;3.67;;;0.65;;
31126;SDS011;17775;57.948;12.514;2023-03-09T05:00:59;1.17;;;0.63;;
31126;SDS011;17775;57.948;12.514;2023-03-09T05:03:27;1.67;;;0.85;;
31126;SDS011;17775;57.948;12.514;2023-03-09T05:05:54;2.60;;;0.77;;
31126;SDS011;17775;57.948;12.514;2023-03-09T05:08:20;1.75;;;0.98;;
31126;SDS011;17775;57.948;12.514;2023-03-09T05:10:47;2.08;;;1.00;;
31126;SDS011;17775;57.948;12.514;2023-03-09T05:13:13;2.05;;;0.82;;
31126;SDS011;17775;57.948;12.514;2023-03-09T05:15:40;4.90;;;1.17;;
31126;SDS011;17775;57.948;12.514;2023-03-09T05:18:07;2.78;;;0.80;;
31126;SDS011;17775;57.948;12.514;2023-03-09T05:20:34;3.03;;;0.80;;
31126;SDS011;17775;57.948;12.514;2023-03-09T05:23:00;1.15;;;0.63;;
31126;SDS011;17775;57.948;12.514;2023-03-09T05:25:27;2.53;;;0.93;;
31126;SDS011;17775;57.948;12.514;2023-03-09T05:27:54;3.65;;;1.10;;
31126;SDS011;17775;57.948;12.514;2023-03-09T05:30:20;2.95;;;0.90;;
31126;SDS011;17775;57.948;12.514;2023-03-09T05:32:47;2.13;;;1.10;;
31126;SDS011;17775;57.948;12.514;2023-03-09T05:35:16;6.25;;;0.88;;
31126;SDS011;17775;57.948;12.514;2023-03-09T05:37:43;1.90;;;1.00;;
31126;SDS011;17775;57.948;12.514;2023-03-09T05:40:11;5.75;;;0.93;;
31126;SDS011;17775;57.948;12.514;2023-03-09T05:42:37;1.50;;;0.70;;
31126;SDS011;17775;57.948;12.514;2023-03-09T05:45:04;1.10;;;0.63;;
31126;SDS011;17775;57.948;12.514;2023-03-09T05:47:33;1.55;;;0.77;;
31126;SDS011;17775;57.948;12.514;2023-03-09T05:50:00;2.63;;;0.80;;
31126;SDS011;17775;57.948;12.514;2023-03-09T05:52:26;1.65;;;0.70;;
31126;SDS011;17775;57.948;12.514;2023-03-09T05:54:53;0.93;;;0.60;;
31126;SDS011;17775;57.948;12.514;2023-03-09T05:57:20;0.60;;;0.50;;
31126;SDS011;17775;57.948;12.514;2023-03-09T05:59:47;0.93;;;0.60;;
31126;SDS011;17775;57.948;12.514;2023-03-09T06:02:13;3.33;;;1.10;;
31126;SDS011;17775;57.948;12.514;2023-03-09T06:04:42;1.52;;;0.68;;
31126;SDS011;17775;57.948;12.514;2023-03-09T06:07:09;1.33;;;0.95;;
31126;SDS011;17775;57.948;12.514;2023-03-09T06:09:35;1.67;;;0.80;;
31126;SDS011;17775;57.948;12.514;2023-03-09T06:12:02;2.40;;;1.00;;
31126;SDS011;17775;57.948;12.514;2023-03-09T06:14:28;2.25;;;0.70;;
31126;SDS011;17775;57.948;12.514;2023-03-09T06:16:54;3.00;;;1.10;;
31126;SDS011;17775;57.948;12.514;2023-03-09T06:19:21;2.00;;;0.95;;
31126;SDS011;17775;57.948;12.514;2023-03-09T06:21:47;2.80;;;0.98;;
31126;SDS011;17775;57.948;12.514;2023-03-09T06:24:14;1.88;;;0.98;;
31126;SDS011;17775;57.948;12.514;2023-03-09T06:26:40;1.83;;;0.80;;
31126;SDS011;17775;57.948;12.514;2023-03-09T06:29:07;2.53;;;1.00;;
31126;SDS011;17775;57.948;12.514;2023-03-09T06:31:33;2.58;;;0.80;;
31126;SDS011;17775;57.948;12.514;2023-03-09T06:34:00;2.33;;;1.00;;
31126;SDS011;17775;57.948;12.514;2023-03-09T06:36:26;1.90;;;0.90;;
31126;SDS011;17775;57.948;12.514;2023-03-09T06:38:53;2.72;;;1.00;;
31126;SDS011;17775;57.948;12.514;2023-03-09T06:41:19;2.97;;;0.95;;
31126;SDS011;17775;57.948;12.514;2023-03-09T06:43:55;7.35;;;1.27;;
31126;SDS011;17775;57.948;12.514;2023-03-09T06:46:21;5.60;;;1.20;;
31126;SDS011;17775;57.948;12.514;2023-03-09T06:48:48;3.22;;;1.40;;
31126;SDS011;17775;57.948;12.514;2023-03-09T06:51:14;2.90;;;1.15;;
31126;SDS011;17775;57.948;12.514;2023-03-09T06:53:41;4.72;;;1.25;;
31126;SDS011;17775;57.948;12.514;2023-03-09T06:56:07;1.23;;;0.95;;
31126;SDS011;17775;57.948;12.514;2023-03-09T06:58:35;3.22;;;1.17;;
31126;SDS011;17775;57.948;12.514;2023-03-09T07:01:05;2.17;;;0.90;;
31126;SDS011;17775;57.948;12.514;2023-03-09T07:03:33;5.00;;;1.40;;
31126;SDS011;17775;57.948;12.514;2023-03-09T07:05:59;3.47;;;1.00;;
31126;SDS011;17775;57.948;12.514;2023-03-09T07:08:26;6.28;;;0.85;;
31126;SDS011;17775;57.948;12.514;2023-03-09T07:10:52;2.33;;;1.08;;
31126;SDS011;17775;57.948;12.514;2023-03-09T07:13:20;2.03;;;0.90;;
31126;SDS011;17775;57.948;12.514;2023-03-09T07:15:47;3.80;;;1.10;;
31126;SDS011;17775;57.948;12.514;2023-03-09T07:18:13;3.17;;;1.33;;
31126;SDS011;17775;57.948;12.514;2023-03-09T07:20:40;2.67;;;1.17;;
31126;SDS011;17775;57.948;12.514;2023-03-09T07:23:08;7.70;;;1.25;;
31126;SDS011;17775;57.948;12.514;2023-03-09T07:25:35;2.65;;;1.55;;
31126;SDS011;17775;57.948;12.514;2023-03-09T07:28:02;3.20;;;1.30;;
31126;SDS011;17775;57.948;12.514;2023-03-09T07:30:32;2.73;;;1.30;;
31126;SDS011;17775;57.948;12.514;2023-03-09T07:32:59;5.13;;;1.63;;
31126;SDS011;17775;57.948;12.514;2023-03-09T07:35:26;7.07;;;1.63;;
31126;SDS011;17775;57.948;12.514;2023-03-09T07:37:53;4.75;;;1.23;;
31126;SDS011;17775;57.948;12.514;2023-03-09T07:40:20;6.63;;;1.50;;
31126;SDS011;17775;57.948;12.514;2023-03-09T07:42:50;5.18;;;1.33;;
31126;SDS011;17775;57.948;12.514;2023-03-09T07:45:19;5.30;;;1.60;;
31126;SDS011;17775;57.948;12.514;2023-03-09T07:47:47;4.78;;;1.80;;
31126;SDS011;17775;57.948;12.514;2023-03-09T07:50:13;3.10;;;1.33;;
31126;SDS011;17775;57.948;12.514;2023-03-09T07:52:40;2.92;;;1.48;;
31126;SDS011;17775;57.948;12.514;2023-03-09T07:55:07;8.52;;;1.65;;
31126;SDS011;17775;57.948;12.514;2023-03-09T07:57:36;2.33;;;1.00;;
31126;SDS011;17775;57.948;12.514;2023-03-09T08:00:04;6.65;;;1.63;;
31126;SDS011;17775;57.948;12.514;2023-03-09T08:02:37;6.45;;;1.88;;
31126;SDS011;17775;57.948;12.514;2023-03-09T08:05:06;5.40;;;2.05;;
31126;SDS011;17775;57.948;12.514;2023-03-09T08:07:33;4.70;;;1.75;;
31126;SDS011;17775;57.948;12.514;2023-03-09T08:10:00;6.03;;;2.05;;
31126;SDS011;17775;57.948;12.514;2023-03-09T08:12:26;6.30;;;1.70;;
31126;SDS011;17775;57.948;12.514;2023-03-09T08:14:52;5.18;;;2.33;;
31126;SDS011;17775;57.948;12.514;2023-03-09T08:17:19;6.68;;;2.78;;
31126;SDS011;17775;57.948;12.514;2023-03-09T08:19:45;5.53;;;1.92;;
31126;SDS011;17775;57.948;12.514;2023-03-09T08:22:12;7.07;;;2.15;;
31126;SDS011;17775;57.948;12.514;2023-03-09T08:24:38;7.90;;;2.20;;
31126;SDS011;17775;57.948;12.514;2023-03-09T08:27:05;6.05;;;2.45;;
31126;SDS011;17775;57.948;12.514;2023-03-09T08:29:31;4.25;;;1.83;;
31126;SDS011;17775;57.948;12.514;2023-03-09T08:31:57;11.00;;;2.53;;
31126;SDS011;17775;57.948;12.514;2023-03-09T08:34:24;7.75;;;2.88;;
31126;SDS011;17775;57.948;12.514;2023-03-09T08:36:50;5.72;;;2.03;;
31126;SDS011;17775;57.948;12.514;2023-03-09T08:39:17;7.88;;;2.22;;
31126;SDS011;17775;57.948;12.514;2023-03-09T08:41:43;5.70;;;2.15;;
31126;SDS011;17775;57.948;12.514;2023-03-09T08:44:10;6.97;;;2.17;;
31126;SDS011;17775;57.948;12.514;2023-03-09T08:46:36;7.22;;;2.30;;
31126;SDS011;17775;57.948;12.514;2023-03-09T08:49:05;6.97;;;2.22;;
31126;SDS011;17775;57.948;12.514;2023-03-09T08:51:31;4.22;;;2.15;;
31126;SDS011;17775;57.948;12.514;2023-03-09T08:53:58;6.25;;;2.20;;
31126;SDS011;17775;57.948;12.514;2023-03-09T08:56:24;4.25;;;1.95;;
31126;SDS011;17775;57.948;12.514;2023-03-09T08:58:50;4.97;;;2.22;;
31126;SDS011;17775;57.948;12.514;2023-03-09T09:01:17;8.05;;;2.40;;
31126;SDS011;17775;57.948;12.514;2023-03-09T09:03:44;8.57;;;2.67;;
31126;SDS011;17775;57.948;12.514;2023-03-09T09:06:12;6.50;;;2.47;;
31126;SDS011;17775;57.948;12.514;2023-03-09T09:08:40;6.43;;;2.40;;
31126;SDS011;17775;57.948;12.514;2023-03-09T09:11:13;8.32;;;1.95;;
31126;SDS011;17775;57.948;12.514;2023-03-09T09:13:40;5.32;;;1.90;;
31126;SDS011;17775;57.948;12.514;2023-03-09T09:16:08;5.00;;;2.08;;
31126;SDS011;17775;57.948;12.514;2023-03-09T09:18:35;6.35;;;2.22;;
31126;SDS011;17775;57.948;12.514;2023-03-09T09:21:09;6.90;;;2.05;;
31126;SDS011;17775;57.948;12.514;2023-03-09T09:23:35;11.60;;;4.82;;
31126;SDS011;17775;57.948;12.514;2023-03-09T09:26:02;4.18;;;2.33;;
31126;SDS011;17775;57.948;12.514;2023-03-09T09:28:28;7.53;;;1.80;;
31126;SDS011;17775;57.948;12.514;2023-03-09T09:30:56;5.65;;;1.80;;
31126;SDS011;17775;57.948;12.514;2023-03-09T09:33:23;6.95;;;1.52;;
31126;SDS011;17775;57.948;12.514;2023-03-09T09:38:22;5.38;;;1.80;;
31126;SDS011;17775;57.948;12.514;2023-03-09T09:40:48;6.90;;;1.30;;
31126;SDS011;17775;57.948;12.514;2023-03-09T09:43:15;4.70;;;1.15;;
31126;SDS011;17775;57.948;12.514;2023-03-09T09:45:42;8.45;;;2.00;;
31126;SDS011;17775;57.948;12.514;2023-03-09T09:48:13;3.60;;;1.33;;
31126;SDS011;17775;57.948;12.514;2023-03-09T09:56:08;6.32;;;1.33;;
31126;SDS011;17775;57.948;12.514;2023-03-09T09:58:37;3.60;;;1.63;;
31126;SDS011;17775;57.948;12.514;2023-03-09T10:01:19;6.43;;;1.65;;
31126;SDS011;17775;57.948;12.514;2023-03-09T10:03:47;4.00;;;1.40;;
31126;SDS011;17775;57.948;12.514;2023-03-09T10:06:22;3.50;;;1.50;;
31126;SDS011;17775;57.948;12.514;2023-03-09T10:09:00;3.42;;;1.40;;
31126;SDS011;17775;57.948;12.514;2023-03-09T10:11:31;5.18;;;1.75;;
31126;SDS011;17775;57.948;12.514;2023-03-09T10:16:39;6.20;;;1.85;;
31126;SDS011;17775;57.948;12.514;2023-03-09T10:19:11;4.55;;;1.50;;
31126;SDS011;17775;57.948;12.514;2023-03-09T10:21:48;6.72;;;1.70;;
31126;SDS011;17775;57.948;12.514;2023-03-09T10:24:25;3.20;;;1.67;;
31126;SDS011;17775;57.948;12.514;2023-03-09T10:29:20;6.00;;;2.00;;
31126;SDS011;17775;57.948;12.514;2023-03-09T10:31:56;6.55;;;1.95;;
31126;SDS011;17775;57.948;12.514;2023-03-09T10:34:25;3.67;;;1.55;;
31126;SDS011;17775;57.948;12.514;2023-03-09T10:37:01;5.65;;;2.47;;
31126;SDS011;17775;57.948;12.514;2023-03-09T10:39:30;6.80;;;1.88;;
31126;SDS011;17775;57.948;12.514;2023-03-09T10:42:00;4.53;;;1.77;;
31126;SDS011;17775;57.948;12.514;2023-03-09T10:44:28;4.55;;;1.10;;
31126;SDS011;17775;57.948;12.514;2023-03-09T10:46:56;3.88;;;1.38;;
31126;SDS011;17775;57.948;12.514;2023-03-09T10:49:27;4.45;;;1.05;;
31126;SDS011;17775;57.948;12.514;2023-03-09T10:51:58;6.03;;;1.17;;
31126;SDS011;17775;57.948;12.514;2023-03-09T10:56:56;2.88;;;0.88;;
31126;SDS011;17775;57.948;12.514;2023-03-09T10:59:29;3.78;;;1.20;;
31126;SDS011;17775;57.948;12.514;2023-03-09T11:01:56;2.53;;;1.02;;
31126;SDS011;17775;57.948;12.514;2023-03-09T11:06:51;3.65;;;0.95;;
31126;SDS011;17775;57.948;12.514;2023-03-09T11:09:18;5.05;;;1.02;;
31126;SDS011;17775;57.948;12.514;2023-03-09T11:11:46;2.00;;;0.90;;
31126;SDS011;17775;57.948;12.514;2023-03-09T11:14:26;1.25;;;0.75;;
31126;SDS011;17775;57.948;12.514;2023-03-09T11:16:54;3.45;;;0.80;;
31126;SDS011;17775;57.948;12.514;2023-03-09T11:19:20;3.85;;;0.77;;
31126;SDS011;17775;57.948;12.514;2023-03-09T11:24:17;1.08;;;0.60;;
31126;SDS011;17775;57.948;12.514;2023-03-09T11:26:46;1.40;;;0.70;;
31126;SDS011;17775;57.948;12.514;2023-03-09T11:29:34;1.52;;;0.80;;
31126;SDS011;17775;57.948;12.514;2023-03-09T11:32:02;3.72;;;1.13;;
31126;SDS011;17775;57.948;12.514;2023-03-09T11:34:35;5.35;;;1.25;;
31126;SDS011;17775;57.948;12.514;2023-03-09T11:39:52;3.13;;;1.20;;
31126;SDS011;17775;57.948;12.514;2023-03-09T11:42:21;4.35;;;1.52;;
31126;SDS011;17775;57.948;12.514;2023-03-09T11:44:52;4.28;;;1.58;;
31126;SDS011;17775;57.948;12.514;2023-03-09T11:47:29;4.97;;;1.80;;
31126;SDS011;17775;57.948;12.514;2023-03-09T11:49:58;7.28;;;1.80;;
31126;SDS011;17775;57.948;12.514;2023-03-09T11:52:27;4.60;;;1.63;;
31126;SDS011;17775;57.948;12.514;2023-03-09T11:54:55;10.85;;;2.45;;
31126;SDS011;17775;57.948;12.514;2023-03-09T11:57:22;6.28;;;1.85;;
31126;SDS011;17775;57.948;12.514;2023-03-09T11:59:53;6.18;;;1.75;;
31126;SDS011;17775;57.948;12.514;2023-03-09T12:02:23;4.00;;;2.15;;
31126;SDS011;17775;57.948;12.514;2023-03-09T12:04:52;6.15;;;2.13;;
31126;SDS011;17775;57.948;12.514;2023-03-09T12:07:24;3.60;;;1.73;;
31126;SDS011;17775;57.948;12.514;2023-03-09T12:14:47;1.33;;;0.88;;
31126;SDS011;17775;57.948;12.514;2023-03-09T12:17:15;1.33;;;0.82;;
31126;SDS011;17775;57.948;12.514;2023-03-09T12:19:48;3.28;;;0.82;;
31126;SDS011;17775;57.948;12.514;2023-03-09T12:22:17;2.35;;;0.70;;
31126;SDS011;17775;57.948;12.514;2023-03-09T12:24:44;1.00;;;0.65;;
31126;SDS011;17775;57.948;12.514;2023-03-09T12:29:45;3.35;;;0.80;;
31126;SDS011;17775;57.948;12.514;2023-03-09T12:32:19;0.75;;;0.50;;
31126;SDS011;17775;57.948;12.514;2023-03-09T12:34:47;1.83;;;0.50;;
31126;SDS011;17775;57.948;12.514;2023-03-09T12:39:58;1.13;;;0.70;;
31126;SDS011;17775;57.948;12.514;2023-03-09T12:42:27;2.03;;;0.85;;
31126;SDS011;17775;57.948;12.514;2023-03-09T12:45:21;0.50;;;0.50;;
31126;SDS011;17775;57.948;12.514;2023-03-09T12:47:58;1.45;;;0.70;;
31126;SDS011;17775;57.948;12.514;2023-03-09T13:00:48;2.33;;;1.20;;
31126;SDS011;17775;57.948;12.514;2023-03-09T13:03:15;3.55;;;0.80;;
31126;SDS011;17775;57.948;12.514;2023-03-09T13:05:46;3.35;;;1.00;;
31126;SDS011;17775;57.948;12.514;2023-03-09T13:08:19;0.95;;;0.70;;
31126;SDS011;17775;57.948;12.514;2023-03-09T13:10:46;1.05;;;0.60;;
31126;SDS011;17775;57.948;12.514;2023-03-09T13:18:43;1.27;;;0.63;;
31126;SDS011;17775;57.948;12.514;2023-03-09T13:23:54;1.60;;;0.65;;
31126;SDS011;17775;57.948;12.514;2023-03-09T13:26:21;1.23;;;0.60;;
31126;SDS011;17775;57.948;12.514;2023-03-09T13:28:48;1.65;;;0.50;;
31126;SDS011;17775;57.948;12.514;2023-03-09T13:31:22;0.47;;;0.32;;
31126;SDS011;17775;57.948;12.514;2023-03-09T13:33:50;0.50;;;0.50;;
31126;SDS011;17775;57.948;12.514;2023-03-09T13:36:18;0.40;;;0.40;;
31126;SDS011;17775;57.948;12.514;2023-03-09T13:41:42;1.38;;;0.50;;
31126;SDS011;17775;57.948;12.514;2023-03-09T13:44:15;0.85;;;0.40;;
31126;SDS011;17775;57.948;12.514;2023-03-09T13:46:48;1.55;;;0.60;;
31126;SDS011;17775;57.948;12.514;2023-03-09T13:51:49;1.10;;;0.40;;
31126;SDS011;17775;57.948;12.514;2023-03-09T13:54:19;0.43;;;0.40;;
31126;SDS011;17775;57.948;12.514;2023-03-09T13:56:59;1.60;;;0.70;;
31126;SDS011;17775;57.948;12.514;2023-03-09T13:59:27;0.45;;;0.30;;
31126;SDS011;17775;57.948;12.514;2023-03-09T14:04:23;0.40;;;0.40;;
31126;SDS011;17775;57.948;12.514;2023-03-09T14:06:50;2.20;;;0.40;;
31126;SDS011;17775;57.948;12.514;2023-03-09T14:09:36;0.50;;;0.40;;
31126;SDS011;17775;57.948;12.514;2023-03-09T14:12:03;1.50;;;0.63;;
31126;SDS011;17775;57.948;12.514;2023-03-09T14:14:30;1.70;;;0.40;;
31126;SDS011;17775;57.948;12.514;2023-03-09T14:16:59;1.33;;;0.55;;
31126;SDS011;17775;57.948;12.514;2023-03-09T14:19:27;2.17;;;0.47;;
31126;SDS011;17775;57.948;12.514;2023-03-09T14:21:54;2.00;;;0.35;;
31126;SDS011;17775;57.948;12.514;2023-03-09T14:26:47;0.38;;;0.35;;
31126;SDS011;17775;57.948;12.514;2023-03-09T14:29:22;1.92;;;0.30;;
31126;SDS011;17775;57.948;12.514;2023-03-09T14:31:49;0.30;;;0.30;;
31126;SDS011;17775;57.948;12.514;2023-03-09T14:34:35;1.75;;;0.40;;
31126;SDS011;17775;57.948;12.514;2023-03-09T14:37:01;1.80;;;0.40;;
31126;SDS011;17775;57.948;12.514;2023-03-09T14:39:30;0.95;;;0.40;;
31126;SDS011;17775;57.948;12.514;2023-03-09T14:46:59;0.73;;;0.40;;
31126;SDS011;17775;57.948;12.514;2023-03-09T14:49:26;0.50;;;0.50;;
31126;SDS011;17775;57.948;12.514;2023-03-09T14:51:52;1.80;;;0.50;;
31126;SDS011;17775;57.948;12.514;2023-03-09T14:54:19;0.68;;;0.40;;
31126;SDS011;17775;57.948;12.514;2023-03-09T14:56:45;0.73;;;0.50;;
31126;SDS011;17775;57.948;12.514;2023-03-09T14:59:15;1.17;;;0.30;;
31126;SDS011;17775;57.948;12.514;2023-03-09T15:01:46;0.47;;;0.30;;
31126;SDS011;17775;57.948;12.514;2023-03-09T15:04:25;2.35;;;0.50;;
31126;SDS011;17775;57.948;12.514;2023-03-09T15:06:52;0.52;;;0.50;;
31126;SDS011;17775;57.948;12.514;2023-03-09T15:09:19;0.20;;;0.20;;
31126;SDS011;17775;57.948;12.514;2023-03-09T15:11:46;0.90;;;0.50;;
31126;SDS011;17775;57.948;12.514;2023-03-09T15:14:17;8.75;;;2.65;;
31126;SDS011;17775;57.948;12.514;2023-03-09T15:16:44;4.32;;;2.95;;
31126;SDS011;17775;57.948;12.514;2023-03-09T15:19:20;1.67;;;1.10;;
31126;SDS011;17775;57.948;12.514;2023-03-09T15:21:47;1.67;;;0.80;;
31126;SDS011;17775;57.948;12.514;2023-03-09T15:24:14;1.45;;;0.95;;
31126;SDS011;17775;57.948;12.514;2023-03-09T15:26:40;2.80;;;1.25;;
31126;SDS011;17775;57.948;12.514;2023-03-09T15:29:07;3.05;;;1.23;;
31126;SDS011;17775;57.948;12.514;2023-03-09T15:31:33;1.48;;;1.23;;
31126;SDS011;17775;57.948;12.514;2023-03-09T15:34:00;3.15;;;1.45;;
31126;SDS011;17775;57.948;12.514;2023-03-09T15:36:27;3.47;;;1.30;;
31126;SDS011;17775;57.948;12.514;2023-03-09T15:38:55;3.63;;;1.40;;
31126;SDS011;17775;57.948;12.514;2023-03-09T15:41:21;2.90;;;1.10;;
31126;SDS011;17775;57.948;12.514;2023-03-09T15:43:48;0.82;;;0.68;;
31126;SDS011;17775;57.948;12.514;2023-03-09T15:46:14;2.40;;;1.20;;
31126;SDS011;17775;57.948;12.514;2023-03-09T15:48:41;2.38;;;0.98;;
31126;SDS011;17775;57.948;12.514;2023-03-09T15:51:08;2.40;;;0.90;;
31126;SDS011;17775;57.948;12.514;2023-03-09T15:53:34;1.15;;;0.73;;
31126;SDS011;17775;57.948;12.514;2023-03-09T15:56:05;1.08;;;0.68;;
31126;SDS011;17775;57.948;12.514;2023-03-09T15:58:32;4.13;;;1.90;;